sensor_id;sensor_type;location;lat;lon;timestamp;pressure;altitude;pressure_sealevel;temperature;humidity
75815;BME280;70031;45.570;14.228;2023-07-20T06:16:20;96565.69;;;22.41;88.22
75815;BME280;70031;45.570;14.228;2023-07-20T06:18:23;96562.16;;;24.45;83.81
75815;BME280;70031;45.570;14.228;2023-07-20T06:20:24;96559.41;;;24.41;81.41
75815;BME280;70031;45.570;14.228;2023-07-20T06:22:24;96562.47;;;23.77;83.37
75815;BME280;70031;45.570;14.228;2023-07-20T06:24:24;96559.34;;;25.28;75.69
75815;BME280;70031;45.570;14.228;2023-07-20T06:26:25;96562.94;;;25.57;71.92
75815;BME280;70031;45.570;14.228;2023-07-20T06:28:25;96563.72;;;25.51;72.75
75815;BME280;70031;45.570;14.228;2023-07-20T06:30:25;96571.53;;;25.38;72.70
75815;BME280;70031;45.570;14.228;2023-07-20T06:32:26;96564.44;;;27.38;67.70
75815;BME280;70031;45.570;14.228;2023-07-20T06:34:26;96569.81;;;24.90;71.09
75815;BME280;70031;45.570;14.228;2023-07-20T06:36:26;96579.25;;;24.89;73.91
75815;BME280;70031;45.570;14.228;2023-07-20T06:38:27;96576.13;;;26.98;69.52
75815;BME280;70031;45.570;14.228;2023-07-20T06:40:28;96565.72;;;26.07;67.12
75815;BME280;70031;45.570;14.228;2023-07-20T06:42:28;96572.19;;;24.85;74.90
75815;BME280;70031;45.570;14.228;2023-07-20T06:44:29;96560.44;;;26.70;70.34
75815;BME280;70031;45.570;14.228;2023-07-20T06:46:30;96551.44;;;27.35;69.20
75815;BME280;70031;45.570;14.228;2023-07-20T06:48:30;96548.53;;;28.46;61.07
75815;BME280;70031;45.570;14.228;2023-07-20T06:50:30;96552.78;;;27.06;61.55
75815;BME280;70031;45.570;14.228;2023-07-20T06:52:31;96552.81;;;27.65;62.65
75815;BME280;70031;45.570;14.228;2023-07-20T06:54:31;96555.75;;;29.35;56.31
75815;BME280;70031;45.570;14.228;2023-07-20T06:56:32;96549.44;;;29.85;53.82
75815;BME280;70031;45.570;14.228;2023-07-20T06:58:32;96542.34;;;30.51;52.54
75815;BME280;70031;45.570;14.228;2023-07-20T07:00:33;96537.63;;;27.87;59.62
75815;BME280;70031;45.570;14.228;2023-07-20T07:02:33;96556.09;;;28.80;58.72
75815;BME280;70031;45.570;14.228;2023-07-20T07:04:34;96546.56;;;29.92;55.47
75815;BME280;70031;45.570;14.228;2023-07-20T07:06:36;96544.03;;;28.97;58.70
75815;BME280;70031;45.570;14.228;2023-07-20T07:08:37;96551.34;;;29.92;56.68
75815;BME280;70031;45.570;14.228;2023-07-20T07:10:40;96548.50;;;29.96;54.70
75815;BME280;70031;45.570;14.228;2023-07-20T07:12:40;96546.47;;;29.49;54.21
75815;BME280;70031;45.570;14.228;2023-07-20T07:14:41;96545.97;;;29.27;56.45
75815;BME280;70031;45.570;14.228;2023-07-20T07:16:41;96540.78;;;29.83;55.65
75815;BME280;70031;45.570;14.228;2023-07-20T07:18:42;96539.53;;;30.11;53.97
75815;BME280;70031;45.570;14.228;2023-07-20T07:20:50;96549.53;;;29.82;55.05
75815;BME280;70031;45.570;14.228;2023-07-20T07:22:50;96556.44;;;28.82;58.40
75815;BME280;70031;45.570;14.228;2023-07-20T07:24:52;96551.75;;;29.40;58.16
75815;BME280;70031;45.570;14.228;2023-07-20T07:26:52;96542.13;;;30.22;56.79
75815;BME280;70031;45.570;14.228;2023-07-20T07:28:52;96543.44;;;30.77;54.04
75815;BME280;70031;45.570;14.228;2023-07-20T07:30:54;96542.41;;;30.04;54.96
75815;BME280;70031;45.570;14.228;2023-07-20T07:32:55;96538.19;;;30.19;55.00
75815;BME280;70031;45.570;14.228;2023-07-20T07:34:55;96540.50;;;29.51;53.91
75815;BME280;70031;45.570;14.228;2023-07-20T07:36:56;96537.00;;;29.47;56.09
75815;BME280;70031;45.570;14.228;2023-07-20T07:38:56;96538.34;;;29.35;57.66
75815;BME280;70031;45.570;14.228;2023-07-20T07:40:58;96539.59;;;29.30;57.88
75815;BME280;70031;45.570;14.228;2023-07-20T07:42:58;96532.25;;;28.86;58.27
75815;BME280;70031;45.570;14.228;2023-07-20T07:44:59;96537.28;;;28.64;58.73
75815;BME280;70031;45.570;14.228;2023-07-20T07:46:59;96536.13;;;27.79;59.13
75815;BME280;70031;45.570;14.228;2023-07-20T07:48:59;96527.00;;;27.86;64.76
75815;BME280;70031;45.570;14.228;2023-07-20T07:51:00;96526.63;;;27.84;62.26
75815;BME280;70031;45.570;14.228;2023-07-20T07:53:00;96533.56;;;28.03;59.79
75815;BME280;70031;45.570;14.228;2023-07-20T07:55:00;96529.03;;;28.19;63.25
75815;BME280;70031;45.570;14.228;2023-07-20T07:57:01;96529.41;;;28.93;60.42
75815;BME280;70031;45.570;14.228;2023-07-20T07:59:01;96528.56;;;28.28;61.91
75815;BME280;70031;45.570;14.228;2023-07-20T08:01:03;96520.75;;;27.78;63.08
75815;BME280;70031;45.570;14.228;2023-07-20T08:03:03;96530.41;;;26.79;65.18
75815;BME280;70031;45.570;14.228;2023-07-20T08:05:04;96521.47;;;27.34;65.09
75815;BME280;70031;45.570;14.228;2023-07-20T08:07:05;96519.03;;;27.43;66.01
75815;BME280;70031;45.570;14.228;2023-07-20T08:09:05;96518.25;;;27.42;65.33
75815;BME280;70031;45.570;14.228;2023-07-20T08:11:05;96510.19;;;27.62;62.94
75815;BME280;70031;45.570;14.228;2023-07-20T08:13:06;96509.59;;;27.37;67.77
75815;BME280;70031;45.570;14.228;2023-07-20T08:15:07;96513.69;;;27.18;69.37
75815;BME280;70031;45.570;14.228;2023-07-20T08:17:07;96512.19;;;27.06;67.30
75815;BME280;70031;45.570;14.228;2023-07-20T08:19:07;96518.59;;;28.38;68.59
75815;BME280;70031;45.570;14.228;2023-07-20T08:21:08;96522.16;;;29.03;62.47
75815;BME280;70031;45.570;14.228;2023-07-20T08:23:08;96516.91;;;28.78;50.79
75815;BME280;70031;45.570;14.228;2023-07-20T08:25:10;96518.66;;;28.99;55.84
75815;BME280;70031;45.570;14.228;2023-07-20T08:27:10;96514.53;;;27.67;55.36
75815;BME280;70031;45.570;14.228;2023-07-20T08:29:10;96518.28;;;27.87;57.37
75815;BME280;70031;45.570;14.228;2023-07-20T08:31:11;96512.44;;;28.57;56.48
75815;BME280;70031;45.570;14.228;2023-07-20T08:33:15;96517.22;;;28.53;55.27
75815;BME280;70031;45.570;14.228;2023-07-20T08:35:16;96520.25;;;28.28;54.66
75815;BME280;70031;45.570;14.228;2023-07-20T08:37:18;96520.88;;;28.05;50.34
75815;BME280;70031;45.570;14.228;2023-07-20T08:39:18;96511.31;;;28.13;48.53
75815;BME280;70031;45.570;14.228;2023-07-20T08:41:20;96517.72;;;28.44;49.91
75815;BME280;70031;45.570;14.228;2023-07-20T08:43:22;96516.28;;;28.33;58.39
75815;BME280;70031;45.570;14.228;2023-07-20T08:45:26;96512.56;;;28.05;51.15
75815;BME280;70031;45.570;14.228;2023-07-20T08:47:28;96514.59;;;28.01;51.91
75815;BME280;70031;45.570;14.228;2023-07-20T08:49:33;96512.00;;;28.24;53.22
75815;BME280;70031;45.570;14.228;2023-07-20T08:51:35;96506.59;;;28.10;53.37
75815;BME280;70031;45.570;14.228;2023-07-20T08:53:35;96511.28;;;27.20;53.17
75815;BME280;70031;45.570;14.228;2023-07-20T08:55:36;96507.75;;;27.71;54.02
75815;BME280;70031;45.570;14.228;2023-07-20T08:57:37;96515.75;;;28.45;54.12
75815;BME280;70031;45.570;14.228;2023-07-20T08:59:40;96512.50;;;28.84;53.95
75815;BME280;70031;45.570;14.228;2023-07-20T09:01:41;96513.28;;;28.16;50.88
75815;BME280;70031;45.570;14.228;2023-07-20T09:03:45;96513.22;;;27.82;50.24
75815;BME280;70031;45.570;14.228;2023-07-20T09:05:45;96505.63;;;28.27;48.97
75815;BME280;70031;45.570;14.228;2023-07-20T09:07:46;96517.44;;;27.94;53.45
75815;BME280;70031;45.570;14.228;2023-07-20T09:09:47;96505.69;;;27.83;52.33
75815;BME280;70031;45.570;14.228;2023-07-20T09:11:48;96510.00;;;28.25;56.66
75815;BME280;70031;45.570;14.228;2023-07-20T09:14:04;96505.25;;;27.88;54.34
75815;BME280;70031;45.570;14.228;2023-07-20T09:16:04;96507.31;;;28.86;61.82
75815;BME280;70031;45.570;14.228;2023-07-20T09:18:05;96499.34;;;29.22;50.84
75815;BME280;70031;45.570;14.228;2023-07-20T09:20:07;96500.72;;;29.34;50.01
75815;BME280;70031;45.570;14.228;2023-07-20T09:22:11;96506.31;;;29.03;45.20
75815;BME280;70031;45.570;14.228;2023-07-20T09:24:12;96500.91;;;29.74;54.35
75815;BME280;70031;45.570;14.228;2023-07-20T09:26:14;96493.94;;;30.32;54.36
75815;BME280;70031;45.570;14.228;2023-07-20T09:28:15;96496.41;;;30.27;43.54
75815;BME280;70031;45.570;14.228;2023-07-20T09:30:16;96494.47;;;30.67;49.49
75815;BME280;70031;45.570;14.228;2023-07-20T09:32:21;96488.81;;;30.51;53.33
75815;BME280;70031;45.570;14.228;2023-07-20T09:34:21;96490.06;;;31.06;47.38
75815;BME280;70031;45.570;14.228;2023-07-20T09:36:22;96484.16;;;31.03;46.97
75815;BME280;70031;45.570;14.228;2023-07-20T09:38:22;96483.44;;;30.99;47.01
75815;BME280;70031;45.570;14.228;2023-07-20T09:40:24;96485.88;;;28.94;46.81
75815;BME280;70031;45.570;14.228;2023-07-20T09:42:25;96484.22;;;29.00;46.07
75815;BME280;70031;45.570;14.228;2023-07-20T09:44:27;96478.41;;;30.15;49.48
75815;BME280;70031;45.570;14.228;2023-07-20T09:46:41;96482.81;;;29.15;43.60
75815;BME280;70031;45.570;14.228;2023-07-20T09:48:51;96485.09;;;29.20;46.19
75815;BME280;70031;45.570;14.228;2023-07-20T09:50:53;96481.06;;;29.99;47.94
75815;BME280;70031;45.570;14.228;2023-07-20T09:52:53;96481.41;;;30.64;46.14
75815;BME280;70031;45.570;14.228;2023-07-20T09:54:55;96479.88;;;30.99;52.49
75815;BME280;70031;45.570;14.228;2023-07-20T09:56:56;96477.16;;;29.96;41.82
75815;BME280;70031;45.570;14.228;2023-07-20T09:58:57;96475.44;;;29.05;45.17
75815;BME280;70031;45.570;14.228;2023-07-20T10:01:02;96478.31;;;29.25;47.07
75815;BME280;70031;45.570;14.228;2023-07-20T10:03:05;96481.09;;;28.98;47.53
75815;BME280;70031;45.570;14.228;2023-07-20T10:05:07;96477.13;;;28.99;46.49
75815;BME280;70031;45.570;14.228;2023-07-20T10:07:10;96483.25;;;29.14;51.02
75815;BME280;70031;45.570;14.228;2023-07-20T10:09:15;96483.44;;;29.26;48.51
75815;BME280;70031;45.570;14.228;2023-07-20T10:11:16;96473.22;;;28.62;48.23
75815;BME280;70031;45.570;14.228;2023-07-20T10:13:18;96475.72;;;28.15;48.44
75815;BME280;70031;45.570;14.228;2023-07-20T10:15:36;96481.91;;;28.64;50.43
75815;BME280;70031;45.570;14.228;2023-07-20T10:17:41;96479.59;;;29.44;48.20
75815;BME280;70031;45.570;14.228;2023-07-20T10:19:51;96475.22;;;29.19;47.58
75815;BME280;70031;45.570;14.228;2023-07-20T10:22:03;96482.44;;;28.82;46.80
75815;BME280;70031;45.570;14.228;2023-07-20T10:24:06;96476.53;;;29.11;52.26
75815;BME280;70031;45.570;14.228;2023-07-20T10:26:09;96486.34;;;28.89;45.17
75815;BME280;70031;45.570;14.228;2023-07-20T10:28:10;96476.38;;;29.22;50.24
75815;BME280;70031;45.570;14.228;2023-07-20T10:30:11;96479.34;;;29.34;50.88
75815;BME280;70031;45.570;14.228;2023-07-20T10:32:12;96467.03;;;29.35;44.85
75815;BME280;70031;45.570;14.228;2023-07-20T10:34:12;96461.84;;;29.37;42.79
75815;BME280;70031;45.570;14.228;2023-07-20T10:36:13;96468.66;;;29.60;40.87
75815;BME280;70031;45.570;14.228;2023-07-20T10:38:13;96467.50;;;29.81;42.11
75815;BME280;70031;45.570;14.228;2023-07-20T10:40:33;96477.88;;;29.26;43.98
75815;BME280;70031;45.570;14.228;2023-07-20T10:42:34;96475.09;;;29.26;41.23
75815;BME280;70031;45.570;14.228;2023-07-20T10:44:39;96486.81;;;29.10;41.13
75815;BME280;70031;45.570;14.228;2023-07-20T10:48:59;96485.38;;;29.29;41.54
75815;BME280;70031;45.570;14.228;2023-07-20T10:51:13;96475.63;;;30.15;38.04
75815;BME280;70031;45.570;14.228;2023-07-20T10:53:18;96475.94;;;29.50;39.20
75815;BME280;70031;45.570;14.228;2023-07-20T10:55:19;96478.28;;;29.52;42.40
75815;BME280;70031;45.570;14.228;2023-07-20T11:01:28;96474.41;;;29.22;38.35
75815;BME280;70031;45.570;14.228;2023-07-20T11:03:30;96466.94;;;29.43;40.17
75815;BME280;70031;45.570;14.228;2023-07-20T11:05:38;96467.72;;;29.43;44.90
75815;BME280;70031;45.570;14.228;2023-07-20T11:07:39;96466.34;;;29.78;45.43
75815;BME280;70031;45.570;14.228;2023-07-20T11:09:39;96462.13;;;29.93;43.53
75815;BME280;70031;45.570;14.228;2023-07-20T11:11:49;96466.03;;;30.39;39.54
75815;BME280;70031;45.570;14.228;2023-07-20T11:14:00;96466.09;;;29.92;39.41
75815;BME280;70031;45.570;14.228;2023-07-20T11:16:02;96455.56;;;30.04;39.63
75815;BME280;70031;45.570;14.228;2023-07-20T11:18:12;96459.72;;;29.96;40.16
75815;BME280;70031;45.570;14.228;2023-07-20T11:20:13;96454.69;;;30.50;50.34
75815;BME280;70031;45.570;14.228;2023-07-20T11:22:16;96452.75;;;30.07;39.78
75815;BME280;70031;45.570;14.228;2023-07-20T11:24:18;96460.47;;;30.79;42.16
75815;BME280;70031;45.570;14.228;2023-07-20T11:26:18;96456.91;;;30.19;39.90
75815;BME280;70031;45.570;14.228;2023-07-20T11:28:19;96448.38;;;30.10;37.19
75815;BME280;70031;45.570;14.228;2023-07-20T11:30:19;96447.50;;;30.53;42.76
75815;BME280;70031;45.570;14.228;2023-07-20T11:32:21;96451.22;;;30.66;38.54
75815;BME280;70031;45.570;14.228;2023-07-20T11:34:22;96453.72;;;30.20;37.16
75815;BME280;70031;45.570;14.228;2023-07-20T11:36:22;96456.25;;;30.51;36.77
75815;BME280;70031;45.570;14.228;2023-07-20T11:38:24;96453.50;;;30.31;36.18
75815;BME280;70031;45.570;14.228;2023-07-20T11:40:24;96441.69;;;30.04;40.62
75815;BME280;70031;45.570;14.228;2023-07-20T11:42:25;96446.00;;;30.28;40.32
75815;BME280;70031;45.570;14.228;2023-07-20T11:44:28;96440.84;;;30.30;40.06
75815;BME280;70031;45.570;14.228;2023-07-20T11:46:29;96448.72;;;30.52;39.35
75815;BME280;70031;45.570;14.228;2023-07-20T11:48:30;96444.88;;;30.26;38.41
75815;BME280;70031;45.570;14.228;2023-07-20T11:50:30;96443.75;;;30.43;42.69
75815;BME280;70031;45.570;14.228;2023-07-20T11:52:31;96441.88;;;30.76;46.24
75815;BME280;70031;45.570;14.228;2023-07-20T11:54:32;96442.38;;;30.51;41.11
75815;BME280;70031;45.570;14.228;2023-07-20T11:56:32;96441.69;;;30.67;41.27
75815;BME280;70031;45.570;14.228;2023-07-20T11:58:33;96435.63;;;30.52;41.88
75815;BME280;70031;45.570;14.228;2023-07-20T12:00:34;96445.88;;;30.35;41.43
75815;BME280;70031;45.570;14.228;2023-07-20T12:02:35;96443.75;;;30.43;42.08
75815;BME280;70031;45.570;14.228;2023-07-20T12:04:35;96444.25;;;30.38;41.71
75815;BME280;70031;45.570;14.228;2023-07-20T12:06:35;96436.25;;;30.20;42.35
75815;BME280;70031;45.570;14.228;2023-07-20T12:08:40;96445.31;;;30.44;40.60
75815;BME280;70031;45.570;14.228;2023-07-20T12:10:41;96429.84;;;30.63;42.65
75815;BME280;70031;45.570;14.228;2023-07-20T12:12:43;96442.31;;;30.55;44.37
75815;BME280;70031;45.570;14.228;2023-07-20T12:14:45;96437.53;;;30.35;45.88
75815;BME280;70031;45.570;14.228;2023-07-20T12:16:52;96431.16;;;30.38;43.40
75815;BME280;70031;45.570;14.228;2023-07-20T12:21:06;96423.16;;;30.96;43.77
75815;BME280;70031;45.570;14.228;2023-07-20T12:23:12;96427.72;;;30.70;43.61
75815;BME280;70031;45.570;14.228;2023-07-20T12:25:12;96420.41;;;31.13;46.86
75815;BME280;70031;45.570;14.228;2023-07-20T12:27:13;96422.16;;;31.55;48.11
75815;BME280;70031;45.570;14.228;2023-07-20T12:29:14;96415.06;;;30.86;43.88
75815;BME280;70031;45.570;14.228;2023-07-20T12:31:15;96414.69;;;30.67;43.87
75815;BME280;70031;45.570;14.228;2023-07-20T12:33:15;96416.13;;;30.56;44.80
75815;BME280;70031;45.570;14.228;2023-07-20T12:35:16;96419.19;;;30.41;45.61
75815;BME280;70031;45.570;14.228;2023-07-20T12:37:18;96417.47;;;30.47;42.91
75815;BME280;70031;45.570;14.228;2023-07-20T12:39:18;96419.81;;;30.69;46.84
75815;BME280;70031;45.570;14.228;2023-07-20T12:41:18;96414.56;;;31.07;43.98
75815;BME280;70031;45.570;14.228;2023-07-20T12:43:19;96414.09;;;30.76;39.94
75815;BME280;70031;45.570;14.228;2023-07-20T12:45:20;96409.44;;;30.89;40.91
75815;BME280;70031;45.570;14.228;2023-07-20T12:47:21;96403.59;;;30.84;40.51
75815;BME280;70031;45.570;14.228;2023-07-20T12:49:22;96408.72;;;30.85;40.86
75815;BME280;70031;45.570;14.228;2023-07-20T12:51:22;96402.41;;;31.17;40.53
75815;BME280;70031;45.570;14.228;2023-07-20T12:53:23;96405.72;;;30.96;38.67
75815;BME280;70031;45.570;14.228;2023-07-20T12:55:23;96403.97;;;31.18;39.29
75815;BME280;70031;45.570;14.228;2023-07-20T12:57:24;96406.06;;;30.98;36.59
75815;BME280;70031;45.570;14.228;2023-07-20T12:59:24;96406.69;;;31.06;40.36
75815;BME280;70031;45.570;14.228;2023-07-20T13:01:24;96407.47;;;31.06;39.13
75815;BME280;70031;45.570;14.228;2023-07-20T13:03:25;96403.38;;;31.43;36.79
75815;BME280;70031;45.570;14.228;2023-07-20T13:05:25;96400.44;;;31.50;43.85
75815;BME280;70031;45.570;14.228;2023-07-20T13:07:33;96397.19;;;31.68;34.93
75815;BME280;70031;45.570;14.228;2023-07-20T13:09:33;96402.59;;;31.59;36.38
75815;BME280;70031;45.570;14.228;2023-07-20T13:11:34;96399.97;;;31.52;35.89
75815;BME280;70031;45.570;14.228;2023-07-20T13:13:34;96397.16;;;31.39;36.19
75815;BME280;70031;45.570;14.228;2023-07-20T13:15:42;96394.53;;;31.48;38.19
75815;BME280;70031;45.570;14.228;2023-07-20T13:17:43;96393.41;;;31.91;41.53
75815;BME280;70031;45.570;14.228;2023-07-20T13:19:43;96389.28;;;32.25;42.61
75815;BME280;70031;45.570;14.228;2023-07-20T13:21:44;96394.50;;;31.81;45.09
75815;BME280;70031;45.570;14.228;2023-07-20T13:23:54;96391.84;;;31.45;41.72
75815;BME280;70031;45.570;14.228;2023-07-20T13:25:54;96388.94;;;30.83;42.89
75815;BME280;70031;45.570;14.228;2023-07-20T13:27:55;96392.31;;;30.91;41.59
75815;BME280;70031;45.570;14.228;2023-07-20T13:29:55;96380.00;;;30.92;40.04
75815;BME280;70031;45.570;14.228;2023-07-20T13:31:55;96374.50;;;30.72;41.01
75815;BME280;70031;45.570;14.228;2023-07-20T13:33:56;96378.47;;;31.23;42.07
75815;BME280;70031;45.570;14.228;2023-07-20T13:35:56;96386.00;;;30.54;40.89
75815;BME280;70031;45.570;14.228;2023-07-20T13:37:56;96382.78;;;30.56;41.82
75815;BME280;70031;45.570;14.228;2023-07-20T13:39:57;96381.09;;;30.42;45.47
75815;BME280;70031;45.570;14.228;2023-07-20T13:41:57;96368.81;;;30.59;45.13
75815;BME280;70031;45.570;14.228;2023-07-20T13:43:57;96366.25;;;30.85;38.81
75815;BME280;70031;45.570;14.228;2023-07-20T13:45:58;96367.22;;;30.78;38.57
75815;BME280;70031;45.570;14.228;2023-07-20T13:47:58;96365.59;;;30.97;44.90
75815;BME280;70031;45.570;14.228;2023-07-20T13:49:58;96373.16;;;30.96;41.39
75815;BME280;70031;45.570;14.228;2023-07-20T13:51:59;96370.38;;;30.96;42.57
75815;BME280;70031;45.570;14.228;2023-07-20T13:53:59;96369.25;;;31.26;39.60
75815;BME280;70031;45.570;14.228;2023-07-20T13:56:00;96365.66;;;31.10;41.08
75815;BME280;70031;45.570;14.228;2023-07-20T13:58:00;96361.88;;;31.03;40.44
75815;BME280;70031;45.570;14.228;2023-07-20T14:00:01;96363.59;;;30.81;41.25
75815;BME280;70031;45.570;14.228;2023-07-20T14:02:02;96363.41;;;30.88;37.83
75815;BME280;70031;45.570;14.228;2023-07-20T14:04:03;96348.66;;;30.91;41.75
75815;BME280;70031;45.570;14.228;2023-07-20T14:06:04;96354.38;;;31.17;36.64
75815;BME280;70031;45.570;14.228;2023-07-20T14:08:04;96357.72;;;31.28;41.01
75815;BME280;70031;45.570;14.228;2023-07-20T14:10:05;96358.09;;;30.77;40.77
75815;BME280;70031;45.570;14.228;2023-07-20T14:12:06;96347.75;;;30.62;40.63
75815;BME280;70031;45.570;14.228;2023-07-20T14:14:08;96355.59;;;30.83;42.92
75815;BME280;70031;45.570;14.228;2023-07-20T14:16:08;96358.88;;;30.94;43.19
75815;BME280;70031;45.570;14.228;2023-07-20T14:18:09;96349.16;;;30.86;40.68
75815;BME280;70031;45.570;14.228;2023-07-20T14:20:10;96357.44;;;31.06;40.93
75815;BME280;70031;45.570;14.228;2023-07-20T14:22:11;96350.94;;;30.60;37.77
75815;BME280;70031;45.570;14.228;2023-07-20T14:24:11;96346.72;;;30.72;37.98
75815;BME280;70031;45.570;14.228;2023-07-20T14:26:12;96349.34;;;30.79;42.83
75815;BME280;70031;45.570;14.228;2023-07-20T14:28:12;96349.75;;;30.77;40.48
75815;BME280;70031;45.570;14.228;2023-07-20T14:30:13;96343.44;;;30.77;41.55
75815;BME280;70031;45.570;14.228;2023-07-20T14:32:13;96340.03;;;30.86;39.21
75815;BME280;70031;45.570;14.228;2023-07-20T14:34:14;96336.84;;;31.03;38.94
75815;BME280;70031;45.570;14.228;2023-07-20T14:36:15;96334.06;;;31.03;43.99
75815;BME280;70031;45.570;14.228;2023-07-20T14:38:16;96333.47;;;30.96;42.46
75815;BME280;70031;45.570;14.228;2023-07-20T14:40:16;96344.81;;;30.85;42.83
75815;BME280;70031;45.570;14.228;2023-07-20T14:42:16;96339.63;;;30.87;41.00
75815;BME280;70031;45.570;14.228;2023-07-20T14:44:18;96344.47;;;30.83;39.99
75815;BME280;70031;45.570;14.228;2023-07-20T14:46:18;96341.38;;;30.61;39.93
75815;BME280;70031;45.570;14.228;2023-07-20T14:48:18;96338.03;;;30.70;40.85
75815;BME280;70031;45.570;14.228;2023-07-20T14:50:19;96343.59;;;29.94;43.10
75815;BME280;70031;45.570;14.228;2023-07-20T14:52:20;96346.00;;;29.52;45.95
75815;BME280;70031;45.570;14.228;2023-07-20T14:54:21;96336.53;;;29.03;46.34
75815;BME280;70031;45.570;14.228;2023-07-20T14:56:21;96346.09;;;28.71;47.54
75815;BME280;70031;45.570;14.228;2023-07-20T14:58:21;96332.28;;;28.44;50.03
75815;BME280;70031;45.570;14.228;2023-07-20T15:00:22;96343.97;;;28.25;50.52
75815;BME280;70031;45.570;14.228;2023-07-20T15:02:22;96343.03;;;28.08;50.09
75815;BME280;70031;45.570;14.228;2023-07-20T15:04:23;96345.81;;;28.05;51.46
75815;BME280;70031;45.570;14.228;2023-07-20T15:06:23;96334.97;;;27.87;51.72
75815;BME280;70031;45.570;14.228;2023-07-20T15:08:24;96341.06;;;27.75;52.52
75815;BME280;70031;45.570;14.228;2023-07-20T15:10:24;96339.53;;;27.70;54.13
75815;BME280;70031;45.570;14.228;2023-07-20T15:12:24;96334.94;;;27.90;51.33
75815;BME280;70031;45.570;14.228;2023-07-20T15:14:25;96334.03;;;28.01;49.59
75815;BME280;70031;45.570;14.228;2023-07-20T15:16:25;96340.06;;;27.92;50.81
75815;BME280;70031;45.570;14.228;2023-07-20T15:18:25;96320.91;;;28.39;50.57
75815;BME280;70031;45.570;14.228;2023-07-20T15:20:26;96326.72;;;28.44;48.24
75815;BME280;70031;45.570;14.228;2023-07-20T15:22:26;96326.91;;;28.34;50.35
75815;BME280;70031;45.570;14.228;2023-07-20T15:24:27;96333.69;;;28.56;48.70
75815;BME280;70031;45.570;14.228;2023-07-20T15:26:27;96330.13;;;28.82;49.29
75815;BME280;70031;45.570;14.228;2023-07-20T15:28:27;96326.31;;;29.00;48.48
75815;BME280;70031;45.570;14.228;2023-07-20T15:30:28;96324.97;;;29.08;48.76
75815;BME280;70031;45.570;14.228;2023-07-20T15:32:29;96322.56;;;29.10;46.62
75815;BME280;70031;45.570;14.228;2023-07-20T15:34:29;96325.69;;;29.12;49.06
75815;BME280;70031;45.570;14.228;2023-07-20T15:36:29;96325.38;;;28.83;46.92
75815;BME280;70031;45.570;14.228;2023-07-20T15:38:30;96327.63;;;28.38;48.46
75815;BME280;70031;45.570;14.228;2023-07-20T15:40:31;96319.44;;;28.31;48.93
75815;BME280;70031;45.570;14.228;2023-07-20T15:42:31;96319.75;;;28.06;50.24
75815;BME280;70031;45.570;14.228;2023-07-20T15:44:32;96328.22;;;27.91;49.23
75815;BME280;70031;45.570;14.228;2023-07-20T15:48:41;96321.06;;;27.94;52.77
75815;BME280;70031;45.570;14.228;2023-07-20T15:50:42;96326.38;;;27.81;53.88
75815;BME280;70031;45.570;14.228;2023-07-20T15:52:43;96324.09;;;27.73;54.60
75815;BME280;70031;45.570;14.228;2023-07-20T15:54:43;96332.53;;;27.58;54.69
75815;BME280;70031;45.570;14.228;2023-07-20T15:56:44;96330.09;;;27.64;57.77
75815;BME280;70031;45.570;14.228;2023-07-20T15:58:44;96329.41;;;27.53;56.77
75815;BME280;70031;45.570;14.228;2023-07-20T16:00:45;96318.47;;;27.42;56.80
75815;BME280;70031;45.570;14.228;2023-07-20T16:02:45;96324.06;;;27.35;56.91
75815;BME280;70031;45.570;14.228;2023-07-20T16:04:45;96321.84;;;27.19;55.43
75815;BME280;70031;45.570;14.228;2023-07-20T16:06:46;96321.19;;;27.08;56.88
75815;BME280;70031;45.570;14.228;2023-07-20T16:08:46;96329.19;;;26.92;59.39
75815;BME280;70031;45.570;14.228;2023-07-20T16:10:47;96324.06;;;26.90;61.93
75815;BME280;70031;45.570;14.228;2023-07-20T16:12:47;96325.72;;;26.80;66.27
75815;BME280;70031;45.570;14.228;2023-07-20T16:14:47;96319.88;;;26.71;69.37
75815;BME280;70031;45.570;14.228;2023-07-20T16:16:48;96316.25;;;26.81;61.74
75815;BME280;70031;45.570;14.228;2023-07-20T16:18:49;96316.56;;;26.91;61.73
75815;BME280;70031;45.570;14.228;2023-07-20T16:20:51;96313.03;;;26.90;62.59
75815;BME280;70031;45.570;14.228;2023-07-20T16:22:53;96322.94;;;26.84;61.21
75815;BME280;70031;45.570;14.228;2023-07-20T16:24:54;96325.25;;;26.89;59.71
75815;BME280;70031;45.570;14.228;2023-07-20T16:26:54;96324.06;;;26.90;58.09
75815;BME280;70031;45.570;14.228;2023-07-20T16:28:54;96324.44;;;26.92;57.23
75815;BME280;70031;45.570;14.228;2023-07-20T16:30:55;96323.63;;;26.95;57.69
75815;BME280;70031;45.570;14.228;2023-07-20T16:32:56;96332.28;;;26.97;56.50
75815;BME280;70031;45.570;14.228;2023-07-20T16:34:58;96333.88;;;26.98;58.23
75815;BME280;70031;45.570;14.228;2023-07-20T16:36:59;96331.50;;;26.97;57.89
75815;BME280;70031;45.570;14.228;2023-07-20T16:38:59;96329.38;;;26.67;57.55
75815;BME280;70031;45.570;14.228;2023-07-20T16:41:00;96332.56;;;26.65;57.76
75815;BME280;70031;45.570;14.228;2023-07-20T16:43:00;96325.94;;;26.52;56.01
75815;BME280;70031;45.570;14.228;2023-07-20T16:45:01;96325.91;;;26.55;58.55
75815;BME280;70031;45.570;14.228;2023-07-20T16:47:01;96327.09;;;26.58;59.38
75815;BME280;70031;45.570;14.228;2023-07-20T16:49:01;96323.22;;;26.48;61.13
75815;BME280;70031;45.570;14.228;2023-07-20T16:51:05;96319.59;;;26.55;58.88
75815;BME280;70031;45.570;14.228;2023-07-20T16:53:05;96328.28;;;26.53;60.56
75815;BME280;70031;45.570;14.228;2023-07-20T16:55:06;96329.81;;;26.62;62.51
75815;BME280;70031;45.570;14.228;2023-07-20T16:57:07;96325.69;;;26.84;62.24
75815;BME280;70031;45.570;14.228;2023-07-20T16:59:09;96324.25;;;27.17;61.85
75815;BME280;70031;45.570;14.228;2023-07-20T17:01:09;96318.66;;;27.24;63.16